sensor_id;sensor_type;location;lat;lon;timestamp;P1;durP1;ratioP1;P2;durP2;ratioP2
42518;SDS011;28147;47.520;18.920;2023-07-29T00:00:42;3.60;;;1.35;;
42518;SDS011;28147;47.520;18.920;2023-07-29T00:03:07;2.45;;;1.25;;
42518;SDS011;28147;47.520;18.920;2023-07-29T00:05:33;2.33;;;1.27;;
42518;SDS011;28147;47.520;18.920;2023-07-29T00:07:59;2.72;;;1.50;;
42518;SDS011;28147;47.520;18.920;2023-07-29T00:10:25;2.83;;;1.27;;
42518;SDS011;28147;47.520;18.920;2023-07-29T00:12:51;2.25;;;1.17;;
42518;SDS011;28147;47.520;18.920;2023-07-29T00:15:16;2.35;;;1.30;;
42518;SDS011;28147;47.520;18.920;2023-07-29T00:17:42;3.60;;;1.48;;
42518;SDS011;28147;47.520;18.920;2023-07-29T00:20:07;2.15;;;1.23;;
42518;SDS011;28147;47.520;18.920;2023-07-29T00:22:33;3.45;;;1.45;;
42518;SDS011;28147;47.520;18.920;2023-07-29T00:24:58;3.88;;;1.45;;
42518;SDS011;28147;47.520;18.920;2023-07-29T00:27:24;2.05;;;1.20;;
42518;SDS011;28147;47.520;18.920;2023-07-29T00:29:50;2.72;;;1.33;;
42518;SDS011;28147;47.520;18.920;2023-07-29T00:32:15;2.60;;;1.35;;
42518;SDS011;28147;47.520;18.920;2023-07-29T00:34:41;2.50;;;1.10;;
42518;SDS011;28147;47.520;18.920;2023-07-29T00:37:06;2.50;;;1.30;;
42518;SDS011;28147;47.520;18.920;2023-07-29T00:39:32;3.00;;;1.30;;
42518;SDS011;28147;47.520;18.920;2023-07-29T00:41:58;3.30;;;1.60;;
42518;SDS011;28147;47.520;18.920;2023-07-29T00:44:23;2.65;;;1.50;;
42518;SDS011;28147;47.520;18.920;2023-07-29T00:46:52;2.70;;;1.20;;
42518;SDS011;28147;47.520;18.920;2023-07-29T00:49:19;3.00;;;1.35;;
42518;SDS011;28147;47.520;18.920;2023-07-29T00:51:45;2.78;;;1.33;;
42518;SDS011;28147;47.520;18.920;2023-07-29T00:54:11;2.60;;;1.42;;
42518;SDS011;28147;47.520;18.920;2023-07-29T00:56:37;2.80;;;1.50;;
42518;SDS011;28147;47.520;18.920;2023-07-29T00:59:03;3.53;;;1.23;;
42518;SDS011;28147;47.520;18.920;2023-07-29T01:01:29;3.25;;;1.50;;
42518;SDS011;28147;47.520;18.920;2023-07-29T01:03:55;6.75;;;1.73;;
42518;SDS011;28147;47.520;18.920;2023-07-29T01:17:03;3.25;;;1.73;;
42518;SDS011;28147;47.520;18.920;2023-07-29T01:22:13;4.38;;;1.80;;
42518;SDS011;28147;47.520;18.920;2023-07-29T01:24:39;2.17;;;1.40;;
42518;SDS011;28147;47.520;18.920;2023-07-29T01:27:04;3.05;;;1.48;;
42518;SDS011;28147;47.520;18.920;2023-07-29T01:29:30;3.17;;;1.60;;
42518;SDS011;28147;47.520;18.920;2023-07-29T01:31:56;3.05;;;1.65;;
42518;SDS011;28147;47.520;18.920;2023-07-29T01:34:47;2.60;;;1.40;;
42518;SDS011;28147;47.520;18.920;2023-07-29T01:37:24;3.10;;;1.30;;
42518;SDS011;28147;47.520;18.920;2023-07-29T01:39:51;3.05;;;1.58;;
42518;SDS011;28147;47.520;18.920;2023-07-29T01:44:47;2.88;;;1.48;;
42518;SDS011;28147;47.520;18.920;2023-07-29T01:47:12;3.88;;;1.80;;
42518;SDS011;28147;47.520;18.920;2023-07-29T01:49:38;3.03;;;1.40;;
42518;SDS011;28147;47.520;18.920;2023-07-29T01:52:03;2.55;;;1.60;;
42518;SDS011;28147;47.520;18.920;2023-07-29T01:54:29;2.38;;;1.30;;
42518;SDS011;28147;47.520;18.920;2023-07-29T01:56:54;3.92;;;1.50;;
42518;SDS011;28147;47.520;18.920;2023-07-29T01:59:20;4.38;;;1.70;;
42518;SDS011;28147;47.520;18.920;2023-07-29T02:01:45;2.47;;;1.35;;
42518;SDS011;28147;47.520;18.920;2023-07-29T02:04:11;3.05;;;1.60;;
42518;SDS011;28147;47.520;18.920;2023-07-29T02:06:37;2.65;;;1.40;;
42518;SDS011;28147;47.520;18.920;2023-07-29T02:09:02;3.35;;;1.58;;
42518;SDS011;28147;47.520;18.920;2023-07-29T02:11:29;3.20;;;1.98;;
42518;SDS011;28147;47.520;18.920;2023-07-29T02:13:55;6.25;;;1.70;;
42518;SDS011;28147;47.520;18.920;2023-07-29T02:16:21;3.60;;;1.60;;
42518;SDS011;28147;47.520;18.920;2023-07-29T02:18:47;4.10;;;1.75;;
42518;SDS011;28147;47.520;18.920;2023-07-29T02:21:14;2.88;;;1.40;;
42518;SDS011;28147;47.520;18.920;2023-07-29T02:23:39;3.40;;;1.60;;
42518;SDS011;28147;47.520;18.920;2023-07-29T02:26:05;4.78;;;1.98;;
42518;SDS011;28147;47.520;18.920;2023-07-29T02:28:31;7.18;;;3.75;;
42518;SDS011;28147;47.520;18.920;2023-07-29T02:33:44;4.88;;;2.72;;
42518;SDS011;28147;47.520;18.920;2023-07-29T02:36:11;4.65;;;2.55;;
42518;SDS011;28147;47.520;18.920;2023-07-29T02:38:37;3.70;;;1.90;;
42518;SDS011;28147;47.520;18.920;2023-07-29T02:41:03;3.40;;;1.88;;
42518;SDS011;28147;47.520;18.920;2023-07-29T02:43:28;3.42;;;1.70;;
42518;SDS011;28147;47.520;18.920;2023-07-29T02:45:54;2.33;;;1.13;;
42518;SDS011;28147;47.520;18.920;2023-07-29T02:48:19;3.15;;;1.42;;
42518;SDS011;28147;47.520;18.920;2023-07-29T02:50:44;3.10;;;1.77;;
42518;SDS011;28147;47.520;18.920;2023-07-29T02:53:10;3.10;;;1.63;;
42518;SDS011;28147;47.520;18.920;2023-07-29T02:55:35;1.95;;;1.27;;
42518;SDS011;28147;47.520;18.920;2023-07-29T02:58:04;2.58;;;1.42;;
42518;SDS011;28147;47.520;18.920;2023-07-29T03:00:31;3.53;;;1.33;;
42518;SDS011;28147;47.520;18.920;2023-07-29T03:02:56;3.30;;;1.52;;
42518;SDS011;28147;47.520;18.920;2023-07-29T03:05:22;2.83;;;1.70;;
42518;SDS011;28147;47.520;18.920;2023-07-29T03:07:47;4.78;;;1.52;;
42518;SDS011;28147;47.520;18.920;2023-07-29T03:10:12;4.28;;;1.83;;
42518;SDS011;28147;47.520;18.920;2023-07-29T03:12:39;3.45;;;1.55;;
42518;SDS011;28147;47.520;18.920;2023-07-29T03:15:04;2.70;;;1.30;;
42518;SDS011;28147;47.520;18.920;2023-07-29T03:17:30;2.03;;;1.20;;
42518;SDS011;28147;47.520;18.920;2023-07-29T03:19:55;1.98;;;1.25;;
42518;SDS011;28147;47.520;18.920;2023-07-29T03:22:21;2.83;;;1.45;;
42518;SDS011;28147;47.520;18.920;2023-07-29T03:24:46;2.53;;;1.42;;
42518;SDS011;28147;47.520;18.920;2023-07-29T03:27:12;2.63;;;1.40;;
42518;SDS011;28147;47.520;18.920;2023-07-29T03:29:38;2.35;;;1.25;;
42518;SDS011;28147;47.520;18.920;2023-07-29T03:32:03;3.03;;;1.55;;
42518;SDS011;28147;47.520;18.920;2023-07-29T03:34:29;2.10;;;1.50;;
42518;SDS011;28147;47.520;18.920;2023-07-29T03:36:54;2.50;;;1.40;;
42518;SDS011;28147;47.520;18.920;2023-07-29T03:39:20;3.20;;;1.50;;
42518;SDS011;28147;47.520;18.920;2023-07-29T03:41:45;2.40;;;1.42;;
42518;SDS011;28147;47.520;18.920;2023-07-29T03:44:10;2.45;;;1.20;;
42518;SDS011;28147;47.520;18.920;2023-07-29T03:46:36;3.97;;;1.30;;
42518;SDS011;28147;47.520;18.920;2023-07-29T03:49:01;3.45;;;1.45;;
42518;SDS011;28147;47.520;18.920;2023-07-29T03:51:28;2.60;;;1.40;;
42518;SDS011;28147;47.520;18.920;2023-07-29T03:53:53;2.80;;;1.50;;
42518;SDS011;28147;47.520;18.920;2023-07-29T03:56:19;2.17;;;1.48;;
42518;SDS011;28147;47.520;18.920;2023-07-29T03:58:45;3.38;;;1.60;;
42518;SDS011;28147;47.520;18.920;2023-07-29T04:01:11;2.70;;;1.50;;
42518;SDS011;28147;47.520;18.920;2023-07-29T04:03:37;2.95;;;1.48;;
42518;SDS011;28147;47.520;18.920;2023-07-29T04:06:02;3.45;;;1.40;;
42518;SDS011;28147;47.520;18.920;2023-07-29T04:08:28;3.17;;;1.50;;
42518;SDS011;28147;47.520;18.920;2023-07-29T04:10:53;3.10;;;1.63;;
42518;SDS011;28147;47.520;18.920;2023-07-29T04:13:18;2.47;;;1.65;;
42518;SDS011;28147;47.520;18.920;2023-07-29T04:15:44;2.80;;;1.40;;
42518;SDS011;28147;47.520;18.920;2023-07-29T04:18:10;3.28;;;1.45;;
42518;SDS011;28147;47.520;18.920;2023-07-29T04:20:35;2.45;;;1.38;;
42518;SDS011;28147;47.520;18.920;2023-07-29T04:23:00;2.78;;;1.40;;
42518;SDS011;28147;47.520;18.920;2023-07-29T04:25:26;3.65;;;1.45;;
42518;SDS011;28147;47.520;18.920;2023-07-29T04:27:51;2.72;;;1.50;;
42518;SDS011;28147;47.520;18.920;2023-07-29T04:30:16;2.85;;;1.40;;
42518;SDS011;28147;47.520;18.920;2023-07-29T04:32:42;3.63;;;1.50;;
42518;SDS011;28147;47.520;18.920;2023-07-29T04:35:09;2.97;;;1.45;;
42518;SDS011;28147;47.520;18.920;2023-07-29T04:37:35;3.20;;;1.58;;
42518;SDS011;28147;47.520;18.920;2023-07-29T04:40:01;2.92;;;1.52;;
42518;SDS011;28147;47.520;18.920;2023-07-29T04:42:26;3.70;;;1.40;;
42518;SDS011;28147;47.520;18.920;2023-07-29T04:44:52;2.33;;;1.33;;
42518;SDS011;28147;47.520;18.920;2023-07-29T04:47:17;3.08;;;1.23;;
42518;SDS011;28147;47.520;18.920;2023-07-29T04:49:43;3.42;;;1.80;;
42518;SDS011;28147;47.520;18.920;2023-07-29T04:52:08;3.35;;;1.73;;
42518;SDS011;28147;47.520;18.920;2023-07-29T04:54:33;4.40;;;1.63;;
42518;SDS011;28147;47.520;18.920;2023-07-29T04:56:59;2.72;;;1.60;;
42518;SDS011;28147;47.520;18.920;2023-07-29T04:59:24;2.38;;;1.48;;
42518;SDS011;28147;47.520;18.920;2023-07-29T05:01:50;2.22;;;1.38;;
42518;SDS011;28147;47.520;18.920;2023-07-29T05:04:15;3.33;;;1.50;;
42518;SDS011;28147;47.520;18.920;2023-07-29T05:06:41;2.47;;;1.40;;
42518;SDS011;28147;47.520;18.920;2023-07-29T05:09:13;4.00;;;1.50;;
42518;SDS011;28147;47.520;18.920;2023-07-29T05:11:40;2.58;;;1.48;;
42518;SDS011;28147;47.520;18.920;2023-07-29T05:14:06;4.85;;;1.60;;
42518;SDS011;28147;47.520;18.920;2023-07-29T05:16:31;2.22;;;1.33;;
42518;SDS011;28147;47.520;18.920;2023-07-29T05:18:57;2.30;;;1.20;;
42518;SDS011;28147;47.520;18.920;2023-07-29T05:21:23;2.55;;;1.55;;
42518;SDS011;28147;47.520;18.920;2023-07-29T05:23:48;2.83;;;1.58;;
42518;SDS011;28147;47.520;18.920;2023-07-29T05:26:13;2.95;;;2.05;;
42518;SDS011;28147;47.520;18.920;2023-07-29T05:28:39;2.58;;;1.50;;
42518;SDS011;28147;47.520;18.920;2023-07-29T05:31:04;2.63;;;1.50;;
42518;SDS011;28147;47.520;18.920;2023-07-29T05:33:29;2.72;;;1.50;;
42518;SDS011;28147;47.520;18.920;2023-07-29T05:35:55;2.92;;;1.60;;
42518;SDS011;28147;47.520;18.920;2023-07-29T05:38:20;3.35;;;1.48;;
42518;SDS011;28147;47.520;18.920;2023-07-29T05:40:47;2.67;;;1.45;;
42518;SDS011;28147;47.520;18.920;2023-07-29T05:43:13;2.38;;;1.10;;
42518;SDS011;28147;47.520;18.920;2023-07-29T05:45:39;2.20;;;1.27;;
42518;SDS011;28147;47.520;18.920;2023-07-29T05:48:05;2.65;;;1.67;;
42518;SDS011;28147;47.520;18.920;2023-07-29T05:50:30;2.92;;;1.60;;
42518;SDS011;28147;47.520;18.920;2023-07-29T05:52:56;2.92;;;1.70;;
42518;SDS011;28147;47.520;18.920;2023-07-29T05:55:21;2.80;;;1.52;;
42518;SDS011;28147;47.520;18.920;2023-07-29T05:57:47;2.85;;;1.25;;
42518;SDS011;28147;47.520;18.920;2023-07-29T06:00:12;3.30;;;1.55;;
42518;SDS011;28147;47.520;18.920;2023-07-29T06:02:38;2.55;;;1.40;;
42518;SDS011;28147;47.520;18.920;2023-07-29T06:05:04;3.25;;;1.63;;
42518;SDS011;28147;47.520;18.920;2023-07-29T06:07:30;2.63;;;1.65;;
42518;SDS011;28147;47.520;18.920;2023-07-29T06:09:57;3.53;;;1.70;;
42518;SDS011;28147;47.520;18.920;2023-07-29T06:12:23;2.70;;;1.38;;
42518;SDS011;28147;47.520;18.920;2023-07-29T06:14:48;2.85;;;1.55;;
42518;SDS011;28147;47.520;18.920;2023-07-29T06:17:13;3.00;;;1.73;;
42518;SDS011;28147;47.520;18.920;2023-07-29T06:19:39;4.95;;;2.10;;
42518;SDS011;28147;47.520;18.920;2023-07-29T06:22:04;18.30;;;2.35;;
42518;SDS011;28147;47.520;18.920;2023-07-29T06:24:30;2.95;;;1.60;;
42518;SDS011;28147;47.520;18.920;2023-07-29T06:26:57;2.63;;;1.55;;
42518;SDS011;28147;47.520;18.920;2023-07-29T06:29:22;2.42;;;1.67;;
42518;SDS011;28147;47.520;18.920;2023-07-29T06:31:48;3.15;;;1.73;;
42518;SDS011;28147;47.520;18.920;2023-07-29T06:34:13;3.80;;;1.83;;
42518;SDS011;28147;47.520;18.920;2023-07-29T06:36:38;2.53;;;1.67;;
42518;SDS011;28147;47.520;18.920;2023-07-29T06:39:04;2.65;;;1.52;;
42518;SDS011;28147;47.520;18.920;2023-07-29T06:41:29;2.75;;;1.48;;
42518;SDS011;28147;47.520;18.920;2023-07-29T06:43:55;2.65;;;1.60;;
42518;SDS011;28147;47.520;18.920;2023-07-29T06:46:21;3.08;;;1.58;;
42518;SDS011;28147;47.520;18.920;2023-07-29T06:48:46;2.17;;;1.30;;
42518;SDS011;28147;47.520;18.920;2023-07-29T06:51:11;2.80;;;1.48;;
42518;SDS011;28147;47.520;18.920;2023-07-29T06:53:37;2.63;;;1.35;;
42518;SDS011;28147;47.520;18.920;2023-07-29T06:56:02;3.20;;;1.73;;
42518;SDS011;28147;47.520;18.920;2023-07-29T06:58:28;4.03;;;1.77;;
42518;SDS011;28147;47.520;18.920;2023-07-29T07:00:53;4.20;;;1.77;;
42518;SDS011;28147;47.520;18.920;2023-07-29T07:03:19;2.78;;;1.50;;
42518;SDS011;28147;47.520;18.920;2023-07-29T07:05:44;3.00;;;1.77;;
42518;SDS011;28147;47.520;18.920;2023-07-29T07:08:10;2.55;;;1.75;;
42518;SDS011;28147;47.520;18.920;2023-07-29T07:10:35;2.75;;;1.40;;
42518;SDS011;28147;47.520;18.920;2023-07-29T07:13:01;2.60;;;1.50;;
42518;SDS011;28147;47.520;18.920;2023-07-29T07:15:26;2.28;;;1.30;;
42518;SDS011;28147;47.520;18.920;2023-07-29T07:17:51;3.45;;;1.70;;
42518;SDS011;28147;47.520;18.920;2023-07-29T07:20:17;2.58;;;1.40;;
42518;SDS011;28147;47.520;18.920;2023-07-29T07:22:42;5.00;;;1.70;;
42518;SDS011;28147;47.520;18.920;2023-07-29T07:25:08;2.38;;;1.60;;
42518;SDS011;28147;47.520;18.920;2023-07-29T07:27:33;2.53;;;1.50;;
42518;SDS011;28147;47.520;18.920;2023-07-29T07:29:59;3.40;;;1.58;;
42518;SDS011;28147;47.520;18.920;2023-07-29T07:32:24;2.42;;;1.33;;
42518;SDS011;28147;47.520;18.920;2023-07-29T07:34:49;1.95;;;1.20;;
42518;SDS011;28147;47.520;18.920;2023-07-29T07:37:15;3.15;;;1.52;;
42518;SDS011;28147;47.520;18.920;2023-07-29T07:39:42;4.03;;;1.40;;
42518;SDS011;28147;47.520;18.920;2023-07-29T07:42:08;2.53;;;1.55;;
42518;SDS011;28147;47.520;18.920;2023-07-29T07:44:33;3.17;;;1.60;;
42518;SDS011;28147;47.520;18.920;2023-07-29T07:46:59;2.35;;;1.30;;
42518;SDS011;28147;47.520;18.920;2023-07-29T07:49:24;1.70;;;1.10;;
42518;SDS011;28147;47.520;18.920;2023-07-29T07:51:49;2.15;;;1.20;;
42518;SDS011;28147;47.520;18.920;2023-07-29T07:54:15;2.38;;;1.38;;
42518;SDS011;28147;47.520;18.920;2023-07-29T07:56:40;2.00;;;1.20;;
42518;SDS011;28147;47.520;18.920;2023-07-29T07:59:06;2.30;;;1.45;;
42518;SDS011;28147;47.520;18.920;2023-07-29T08:01:35;2.25;;;1.50;;
42518;SDS011;28147;47.520;18.920;2023-07-29T08:04:01;1.58;;;1.00;;
42518;SDS011;28147;47.520;18.920;2023-07-29T08:06:27;1.58;;;0.98;;
42518;SDS011;28147;47.520;18.920;2023-07-29T08:08:52;1.92;;;1.30;;
42518;SDS011;28147;47.520;18.920;2023-07-29T08:11:18;2.25;;;1.30;;
42518;SDS011;28147;47.520;18.920;2023-07-29T08:13:43;2.20;;;1.50;;
42518;SDS011;28147;47.520;18.920;2023-07-29T08:16:08;3.30;;;1.42;;
42518;SDS011;28147;47.520;18.920;2023-07-29T08:18:34;1.77;;;1.17;;
42518;SDS011;28147;47.520;18.920;2023-07-29T08:20:59;1.67;;;1.27;;
42518;SDS011;28147;47.520;18.920;2023-07-29T08:23:29;2.35;;;1.30;;
42518;SDS011;28147;47.520;18.920;2023-07-29T08:25:59;2.42;;;1.50;;
42518;SDS011;28147;47.520;18.920;2023-07-29T08:28:27;2.55;;;1.48;;
42518;SDS011;28147;47.520;18.920;2023-07-29T08:30:56;1.63;;;1.10;;
42518;SDS011;28147;47.520;18.920;2023-07-29T08:33:22;1.98;;;1.17;;
42518;SDS011;28147;47.520;18.920;2023-07-29T08:35:47;2.92;;;1.75;;
42518;SDS011;28147;47.520;18.920;2023-07-29T08:38:13;2.53;;;1.27;;
42518;SDS011;28147;47.520;18.920;2023-07-29T08:40:42;4.57;;;1.20;;
42518;SDS011;28147;47.520;18.920;2023-07-29T08:43:10;1.90;;;1.25;;
42518;SDS011;28147;47.520;18.920;2023-07-29T08:45:39;1.85;;;1.05;;
42518;SDS011;28147;47.520;18.920;2023-07-29T08:48:07;2.03;;;1.10;;
42518;SDS011;28147;47.520;18.920;2023-07-29T08:50:35;2.63;;;1.10;;
42518;SDS011;28147;47.520;18.920;2023-07-29T08:53:02;2.15;;;1.23;;
42518;SDS011;28147;47.520;18.920;2023-07-29T08:55:29;2.35;;;1.10;;
42518;SDS011;28147;47.520;18.920;2023-07-29T08:57:55;1.75;;;1.00;;
42518;SDS011;28147;47.520;18.920;2023-07-29T09:00:22;2.00;;;1.00;;
42518;SDS011;28147;47.520;18.920;2023-07-29T09:02:48;1.33;;;0.82;;
42518;SDS011;28147;47.520;18.920;2023-07-29T09:05:13;1.55;;;0.90;;
42518;SDS011;28147;47.520;18.920;2023-07-29T09:07:39;1.50;;;0.90;;
42518;SDS011;28147;47.520;18.920;2023-07-29T09:10:08;1.50;;;1.05;;
42518;SDS011;28147;47.520;18.920;2023-07-29T09:12:35;1.58;;;0.93;;
42518;SDS011;28147;47.520;18.920;2023-07-29T09:15:01;1.15;;;0.85;;
42518;SDS011;28147;47.520;18.920;2023-07-29T09:17:26;1.20;;;0.60;;
42518;SDS011;28147;47.520;18.920;2023-07-29T09:19:51;1.48;;;1.00;;
42518;SDS011;28147;47.520;18.920;2023-07-29T09:22:18;1.60;;;1.02;;
42518;SDS011;28147;47.520;18.920;2023-07-29T09:24:45;0.98;;;0.70;;
42518;SDS011;28147;47.520;18.920;2023-07-29T09:27:23;1.63;;;0.88;;
42518;SDS011;28147;47.520;18.920;2023-07-29T09:29:49;1.97;;;1.00;;
42518;SDS011;28147;47.520;18.920;2023-07-29T09:32:18;1.15;;;0.77;;
42518;SDS011;28147;47.520;18.920;2023-07-29T09:34:47;1.15;;;0.73;;
42518;SDS011;28147;47.520;18.920;2023-07-29T09:37:31;1.65;;;0.88;;
42518;SDS011;28147;47.520;18.920;2023-07-29T09:39:57;0.88;;;0.70;;
42518;SDS011;28147;47.520;18.920;2023-07-29T09:42:22;2.33;;;1.10;;
42518;SDS011;28147;47.520;18.920;2023-07-29T09:44:49;1.73;;;0.73;;
42518;SDS011;28147;47.520;18.920;2023-07-29T09:47:22;1.00;;;0.80;;
42518;SDS011;28147;47.520;18.920;2023-07-29T09:49:48;1.50;;;0.85;;
42518;SDS011;28147;47.520;18.920;2023-07-29T09:52:18;1.35;;;0.80;;
42518;SDS011;28147;47.520;18.920;2023-07-29T09:54:45;1.52;;;0.88;;
42518;SDS011;28147;47.520;18.920;2023-07-29T09:57:14;1.40;;;0.80;;
42518;SDS011;28147;47.520;18.920;2023-07-29T09:59:43;2.40;;;1.00;;
42518;SDS011;28147;47.520;18.920;2023-07-29T10:02:15;1.27;;;0.70;;
42518;SDS011;28147;47.520;18.920;2023-07-29T10:04:42;1.60;;;0.90;;
42518;SDS011;28147;47.520;18.920;2023-07-29T10:07:08;2.47;;;1.30;;
42518;SDS011;28147;47.520;18.920;2023-07-29T10:09:35;1.58;;;0.80;;
42518;SDS011;28147;47.520;18.920;2023-07-29T10:12:03;1.95;;;1.00;;
42518;SDS011;28147;47.520;18.920;2023-07-29T10:14:31;1.50;;;0.85;;
42518;SDS011;28147;47.520;18.920;2023-07-29T10:16:56;1.30;;;0.88;;
42518;SDS011;28147;47.520;18.920;2023-07-29T10:19:22;1.33;;;0.80;;
42518;SDS011;28147;47.520;18.920;2023-07-29T10:21:50;4.20;;;0.70;;
42518;SDS011;28147;47.520;18.920;2023-07-29T10:24:18;2.15;;;1.38;;
42518;SDS011;28147;47.520;18.920;2023-07-29T10:26:47;1.90;;;0.90;;
42518;SDS011;28147;47.520;18.920;2023-07-29T10:29:14;3.40;;;1.20;;
42518;SDS011;28147;47.520;18.920;2023-07-29T10:31:44;1.23;;;0.75;;
42518;SDS011;28147;47.520;18.920;2023-07-29T10:34:11;1.88;;;1.00;;
42518;SDS011;28147;47.520;18.920;2023-07-29T10:36:38;1.27;;;0.90;;
42518;SDS011;28147;47.520;18.920;2023-07-29T10:39:06;2.00;;;1.10;;
42518;SDS011;28147;47.520;18.920;2023-07-29T10:49:39;2.17;;;1.02;;
42518;SDS011;28147;47.520;18.920;2023-07-29T10:52:12;3.28;;;1.30;;
42518;SDS011;28147;47.520;18.920;2023-07-29T10:54:42;2.13;;;0.90;;
42518;SDS011;28147;47.520;18.920;2023-07-29T10:57:13;2.25;;;1.15;;
42518;SDS011;28147;47.520;18.920;2023-07-29T10:59:40;2.22;;;1.30;;
42518;SDS011;28147;47.520;18.920;2023-07-29T11:02:12;1.95;;;1.20;;
42518;SDS011;28147;47.520;18.920;2023-07-29T11:04:50;3.40;;;1.27;;
42518;SDS011;28147;47.520;18.920;2023-07-29T11:20:18;2.30;;;1.15;;
42518;SDS011;28147;47.520;18.920;2023-07-29T11:22:54;3.83;;;1.30;;
42518;SDS011;28147;47.520;18.920;2023-07-29T11:25:22;1.40;;;0.90;;
42518;SDS011;28147;47.520;18.920;2023-07-29T11:27:53;2.17;;;1.35;;
42518;SDS011;28147;47.520;18.920;2023-07-29T11:30:19;1.70;;;1.10;;
42518;SDS011;28147;47.520;18.920;2023-07-29T11:32:45;3.22;;;1.40;;
42518;SDS011;28147;47.520;18.920;2023-07-29T11:37:39;1.83;;;1.00;;
42518;SDS011;28147;47.520;18.920;2023-07-29T11:40:05;1.90;;;1.08;;
42518;SDS011;28147;47.520;18.920;2023-07-29T11:42:35;1.70;;;1.20;;
42518;SDS011;28147;47.520;18.920;2023-07-29T11:45:04;1.98;;;1.02;;
42518;SDS011;28147;47.520;18.920;2023-07-29T11:47:32;1.90;;;1.00;;
42518;SDS011;28147;47.520;18.920;2023-07-29T11:50:01;1.60;;;0.95;;
42518;SDS011;28147;47.520;18.920;2023-07-29T11:52:27;1.38;;;0.90;;
42518;SDS011;28147;47.520;18.920;2023-07-29T11:54:53;1.95;;;1.00;;
42518;SDS011;28147;47.520;18.920;2023-07-29T11:57:19;4.10;;;1.20;;
42518;SDS011;28147;47.520;18.920;2023-07-29T11:59:45;2.00;;;0.95;;
42518;SDS011;28147;47.520;18.920;2023-07-29T12:02:15;1.77;;;1.10;;
42518;SDS011;28147;47.520;18.920;2023-07-29T12:04:43;1.45;;;0.98;;
42518;SDS011;28147;47.520;18.920;2023-07-29T12:07:12;3.22;;;1.65;;
42518;SDS011;28147;47.520;18.920;2023-07-29T12:09:39;1.98;;;1.17;;
42518;SDS011;28147;47.520;18.920;2023-07-29T12:12:06;1.73;;;1.10;;
42518;SDS011;28147;47.520;18.920;2023-07-29T12:14:32;1.90;;;1.00;;
42518;SDS011;28147;47.520;18.920;2023-07-29T12:17:05;1.73;;;1.05;;
42518;SDS011;28147;47.520;18.920;2023-07-29T12:19:33;2.97;;;1.30;;
42518;SDS011;28147;47.520;18.920;2023-07-29T12:22:00;2.35;;;1.13;;
42518;SDS011;28147;47.520;18.920;2023-07-29T12:24:26;1.88;;;1.08;;
42518;SDS011;28147;47.520;18.920;2023-07-29T12:26:52;1.38;;;0.98;;
42518;SDS011;28147;47.520;18.920;2023-07-29T12:29:18;2.08;;;1.08;;
42518;SDS011;28147;47.520;18.920;2023-07-29T12:34:19;1.30;;;0.80;;
42518;SDS011;28147;47.520;18.920;2023-07-29T12:36:46;2.10;;;1.33;;
42518;SDS011;28147;47.520;18.920;2023-07-29T12:39:22;1.88;;;0.95;;
42518;SDS011;28147;47.520;18.920;2023-07-29T12:41:52;2.85;;;1.10;;
42518;SDS011;28147;47.520;18.920;2023-07-29T12:44:19;2.10;;;1.17;;
42518;SDS011;28147;47.520;18.920;2023-07-29T12:46:44;2.53;;;1.30;;
42518;SDS011;28147;47.520;18.920;2023-07-29T12:49:10;1.88;;;1.20;;
42518;SDS011;28147;47.520;18.920;2023-07-29T12:51:36;2.40;;;1.17;;
42518;SDS011;28147;47.520;18.920;2023-07-29T12:54:02;2.03;;;1.10;;
42518;SDS011;28147;47.520;18.920;2023-07-29T12:56:29;2.40;;;1.25;;
42518;SDS011;28147;47.520;18.920;2023-07-29T12:58:56;1.13;;;1.00;;
42518;SDS011;28147;47.520;18.920;2023-07-29T13:01:21;2.00;;;1.00;;
42518;SDS011;28147;47.520;18.920;2023-07-29T13:03:47;1.77;;;1.08;;
42518;SDS011;28147;47.520;18.920;2023-07-29T13:06:13;2.10;;;1.10;;
42518;SDS011;28147;47.520;18.920;2023-07-29T13:08:38;2.30;;;0.90;;
42518;SDS011;28147;47.520;18.920;2023-07-29T13:11:04;2.50;;;1.35;;
42518;SDS011;28147;47.520;18.920;2023-07-29T13:13:30;1.83;;;1.15;;
42518;SDS011;28147;47.520;18.920;2023-07-29T13:15:56;2.35;;;1.20;;
42518;SDS011;28147;47.520;18.920;2023-07-29T13:18:22;1.40;;;1.15;;
42518;SDS011;28147;47.520;18.920;2023-07-29T13:20:47;2.13;;;1.10;;
42518;SDS011;28147;47.520;18.920;2023-07-29T13:23:13;3.35;;;1.17;;
42518;SDS011;28147;47.520;18.920;2023-07-29T13:25:38;2.38;;;1.20;;
42518;SDS011;28147;47.520;18.920;2023-07-29T13:28:04;1.95;;;1.10;;
42518;SDS011;28147;47.520;18.920;2023-07-29T13:30:29;2.80;;;1.20;;
42518;SDS011;28147;47.520;18.920;2023-07-29T13:32:55;1.35;;;0.90;;
42518;SDS011;28147;47.520;18.920;2023-07-29T13:35:20;1.92;;;1.10;;
42518;SDS011;28147;47.520;18.920;2023-07-29T13:37:46;2.72;;;1.60;;
42518;SDS011;28147;47.520;18.920;2023-07-29T13:40:11;1.83;;;1.13;;
42518;SDS011;28147;47.520;18.920;2023-07-29T13:42:37;2.08;;;1.42;;
42518;SDS011;28147;47.520;18.920;2023-07-29T13:45:02;2.13;;;1.00;;
42518;SDS011;28147;47.520;18.920;2023-07-29T13:47:28;1.63;;;1.00;;
42518;SDS011;28147;47.520;18.920;2023-07-29T13:49:53;1.73;;;1.10;;
42518;SDS011;28147;47.520;18.920;2023-07-29T13:52:18;1.95;;;1.17;;
42518;SDS011;28147;47.520;18.920;2023-07-29T13:54:44;2.03;;;1.10;;
42518;SDS011;28147;47.520;18.920;2023-07-29T13:57:09;2.25;;;1.17;;
42518;SDS011;28147;47.520;18.920;2023-07-29T13:59:35;2.15;;;1.20;;
42518;SDS011;28147;47.520;18.920;2023-07-29T14:02:03;1.88;;;1.13;;
42518;SDS011;28147;47.520;18.920;2023-07-29T14:04:30;1.95;;;1.08;;
42518;SDS011;28147;47.520;18.920;2023-07-29T14:06:59;2.42;;;1.20;;
42518;SDS011;28147;47.520;18.920;2023-07-29T14:09:24;2.37;;;1.23;;
42518;SDS011;28147;47.520;18.920;2023-07-29T14:11:50;1.52;;;1.00;;
42518;SDS011;28147;47.520;18.920;2023-07-29T14:14:16;2.65;;;1.20;;
42518;SDS011;28147;47.520;18.920;2023-07-29T14:16:41;2.15;;;1.20;;
42518;SDS011;28147;47.520;18.920;2023-07-29T14:19:06;2.17;;;1.20;;
42518;SDS011;28147;47.520;18.920;2023-07-29T14:21:32;3.08;;;1.33;;
42518;SDS011;28147;47.520;18.920;2023-07-29T14:23:57;2.15;;;1.35;;
42518;SDS011;28147;47.520;18.920;2023-07-29T14:26:23;1.77;;;1.20;;
42518;SDS011;28147;47.520;18.920;2023-07-29T14:28:48;1.42;;;1.00;;
42518;SDS011;28147;47.520;18.920;2023-07-29T14:31:15;2.33;;;1.10;;
42518;SDS011;28147;47.520;18.920;2023-07-29T14:33:42;3.67;;;1.40;;
42518;SDS011;28147;47.520;18.920;2023-07-29T14:36:10;2.15;;;1.10;;
42518;SDS011;28147;47.520;18.920;2023-07-29T14:38:36;2.25;;;1.27;;
42518;SDS011;28147;47.520;18.920;2023-07-29T14:41:02;1.95;;;1.08;;
42518;SDS011;28147;47.520;18.920;2023-07-29T14:43:28;4.13;;;1.40;;
42518;SDS011;28147;47.520;18.920;2023-07-29T14:45:54;1.58;;;1.10;;
42518;SDS011;28147;47.520;18.920;2023-07-29T14:48:19;1.58;;;1.02;;
42518;SDS011;28147;47.520;18.920;2023-07-29T14:50:45;1.98;;;1.02;;
42518;SDS011;28147;47.520;18.920;2023-07-29T14:53:10;2.53;;;1.30;;
42518;SDS011;28147;47.520;18.920;2023-07-29T14:55:36;2.58;;;1.30;;
42518;SDS011;28147;47.520;18.920;2023-07-29T14:58:02;1.73;;;1.00;;
42518;SDS011;28147;47.520;18.920;2023-07-29T15:00:28;1.48;;;0.90;;
42518;SDS011;28147;47.520;18.920;2023-07-29T15:02:53;2.03;;;1.02;;
42518;SDS011;28147;47.520;18.920;2023-07-29T15:05:19;1.95;;;1.13;;
42518;SDS011;28147;47.520;18.920;2023-07-29T15:07:44;2.35;;;1.27;;
42518;SDS011;28147;47.520;18.920;2023-07-29T15:10:10;1.33;;;0.85;;
42518;SDS011;28147;47.520;18.920;2023-07-29T15:12:35;1.92;;;1.30;;